createdAt,value
2023-03-20T00:01:30.006Z,7.10
2023-03-20T00:03:57.567Z,7.00
2023-03-20T00:06:27.235Z,6.90
2023-03-20T00:08:55.291Z,6.90
2023-03-20T00:11:30.659Z,6.90
2023-03-20T00:14:00.608Z,6.90
2023-03-20T00:16:32.846Z,6.90
2023-03-20T00:18:59.524Z,6.80
2023-03-20T00:21:27.291Z,6.80
2023-03-20T00:23:55.383Z,6.90
2023-03-20T00:26:28.326Z,6.90
2023-03-20T00:28:56.324Z,6.90
2023-03-20T00:31:28.622Z,6.80
2023-03-20T00:33:58.722Z,6.90
2023-03-20T00:36:25.530Z,6.80
2023-03-20T00:38:52.737Z,6.80
2023-03-20T00:41:28.501Z,6.80
2023-03-20T00:44:01.065Z,6.80
2023-03-20T00:46:28.042Z,6.70
2023-03-20T00:48:55.888Z,6.70
2023-03-20T00:51:22.822Z,6.70
2023-03-20T00:53:49.524Z,6.70
2023-03-20T00:56:36.397Z,6.70
2023-03-20T00:59:04.143Z,6.70
2023-03-20T01:01:32.052Z,6.70
2023-03-20T01:04:01.847Z,6.80
2023-03-20T01:06:29.639Z,6.70
2023-03-20T01:08:57.678Z,6.70
2023-03-20T01:11:25.729Z,6.70
2023-03-20T01:13:52.545Z,6.70
2023-03-20T01:16:25.575Z,6.80
2023-03-20T01:18:52.996Z,6.80
2023-03-20T01:21:20.633Z,6.80
2023-03-20T01:23:49.221Z,6.80
2023-03-20T01:26:32.890Z,6.80
2023-03-20T01:28:59.640Z,6.80
2023-03-20T01:31:27.265Z,6.80
2023-03-20T01:33:54.126Z,6.90
2023-03-20T01:36:23.126Z,6.90
2023-03-20T01:38:56.058Z,6.90
2023-03-20T01:41:25.390Z,6.90
2023-03-20T01:43:53.096Z,6.90
2023-03-20T01:46:31.762Z,6.90
2023-03-20T01:49:19.630Z,6.90
2023-03-20T01:51:48.779Z,6.80
2023-03-20T01:54:23.861Z,6.90
2023-03-20T01:57:10.229Z,6.90
2023-03-20T02:00:04.091Z,6.90
2023-03-20T02:02:43.810Z,6.90
2023-03-20T02:05:13.924Z,7.00
2023-03-20T02:07:41.000Z,6.90
2023-03-20T02:10:14.390Z,6.80
2023-03-20T02:12:49.048Z,6.80
2023-03-20T02:15:27.257Z,6.80
2023-03-20T02:18:05.076Z,6.70
2023-03-20T02:20:41.426Z,6.70
2023-03-20T02:23:26.958Z,6.80
2023-03-20T02:26:06.668Z,6.80
2023-03-20T02:29:01.016Z,6.80
2023-03-20T02:31:54.142Z,6.70
2023-03-20T02:34:42.683Z,6.70
2023-03-20T02:37:49.287Z,6.60
2023-03-20T02:40:40.653Z,6.60
2023-03-20T02:43:22.792Z,6.70
2023-03-20T02:46:11.677Z,6.80
2023-03-20T02:48:48.707Z,6.70
2023-03-20T02:51:28.237Z,6.60
2023-03-20T02:54:33.571Z,6.60
2023-03-20T02:57:09.018Z,6.80
2023-03-20T02:59:58.162Z,6.80
2023-03-20T03:02:38.876Z,6.80
2023-03-20T03:05:19.176Z,6.70
2023-03-20T03:07:49.882Z,6.80
2023-03-20T03:10:51.863Z,6.70
2023-03-20T03:13:23.026Z,6.70
2023-03-20T03:15:55.488Z,6.70
2023-03-20T03:18:26.133Z,6.70
2023-03-20T03:20:58.289Z,6.70
2023-03-20T03:23:32.619Z,6.70
2023-03-20T03:26:02.343Z,6.60
2023-03-20T03:28:43.085Z,6.60
2023-03-20T03:31:13.752Z,6.50
2023-03-20T03:33:43.419Z,6.50
2023-03-20T03:36:25.442Z,6.40
2023-03-20T03:39:21.038Z,6.30
2023-03-20T03:42:11.406Z,6.20
2023-03-20T03:44:59.960Z,6.00
2023-03-20T03:47:38.317Z,6.00
2023-03-20T03:50:16.938Z,6.10
2023-03-20T03:52:46.433Z,6.20
2023-03-20T03:55:21.401Z,6.30
2023-03-20T03:58:06.087Z,6.40
2023-03-20T04:00:34.937Z,6.50
2023-03-20T04:03:06.126Z,6.60
2023-03-20T04:05:36.914Z,6.70
2023-03-20T04:08:06.228Z,6.80
2023-03-20T04:10:33.780Z,6.80
2023-03-20T04:13:00.536Z,6.80
2023-03-20T04:15:27.907Z,6.80
2023-03-20T04:17:55.618Z,6.80
2023-03-20T04:20:22.905Z,6.70
2023-03-20T04:22:50.844Z,6.80
2023-03-20T04:25:24.177Z,6.90
2023-03-20T04:27:53.916Z,6.80
2023-03-20T04:30:32.144Z,6.80
2023-03-20T04:33:17.462Z,6.80
2023-03-20T04:35:54.126Z,6.70
2023-03-20T04:38:21.593Z,6.70
2023-03-20T04:40:49.210Z,6.90
2023-03-20T04:43:16.591Z,6.90
2023-03-20T04:45:43.588Z,7.00
2023-03-20T04:48:10.563Z,7.00
2023-03-20T04:50:37.538Z,7.10
2023-03-20T04:53:05.710Z,7.10
2023-03-20T04:55:33.161Z,7.20
2023-03-20T04:57:59.918Z,7.20
2023-03-20T05:00:27.934Z,7.20
2023-03-20T05:02:54.600Z,7.20
2023-03-20T05:05:21.383Z,7.20
2023-03-20T05:07:48.227Z,7.20
2023-03-20T05:10:22.614Z,7.20
2023-03-20T05:12:57.766Z,7.20
2023-03-20T05:15:27.184Z,7.10
2023-03-20T05:18:12.266Z,7.10
2023-03-20T05:20:57.608Z,7.10
2023-03-20T05:23:31.254Z,7.20
2023-03-20T05:26:25.358Z,7.30
2023-03-20T05:28:54.958Z,7.30
2023-03-20T05:31:31.838Z,7.40
2023-03-20T05:34:05.754Z,7.30
2023-03-20T05:37:04.962Z,7.30
2023-03-20T05:39:43.218Z,7.30
2023-03-20T05:42:36.026Z,7.20
2023-03-20T05:45:24.878Z,7.00
2023-03-20T05:48:10.330Z,7.10
2023-03-20T05:50:56.249Z,7.10
2023-03-20T05:53:37.059Z,7.00
2023-03-20T05:56:22.405Z,6.90
2023-03-20T05:59:12.702Z,6.80
2023-03-20T06:01:50.041Z,6.90
2023-03-20T06:04:24.743Z,6.80
2023-03-20T06:07:12.702Z,6.70
2023-03-20T06:09:42.684Z,6.80
2023-03-20T06:12:12.922Z,6.80
2023-03-20T06:14:40.361Z,6.90
2023-03-20T06:17:08.756Z,6.90
2023-03-20T06:19:35.657Z,6.80
2023-03-20T06:22:02.870Z,6.70
2023-03-20T06:24:31.366Z,6.60
2023-03-20T06:26:59.129Z,6.50
2023-03-20T06:29:26.770Z,6.50
2023-03-20T06:31:57.199Z,6.60
2023-03-20T06:34:28.632Z,6.40
2023-03-20T06:36:57.008Z,6.50
2023-03-20T06:39:24.040Z,6.50
2023-03-20T06:41:51.015Z,6.50
2023-03-20T06:44:21.976Z,6.40
2023-03-20T06:47:14.575Z,6.50
2023-03-20T06:49:44.593Z,6.60
2023-03-20T06:52:17.339Z,6.80
2023-03-20T06:54:46.940Z,7.00
2023-03-20T06:57:15.408Z,7.10
2023-03-20T06:59:43.476Z,7.10
2023-03-20T07:02:11.650Z,7.20
2023-03-20T07:04:39.084Z,7.30
2023-03-20T07:07:05.902Z,7.40
2023-03-20T07:09:34.689Z,7.50
2023-03-20T07:12:02.329Z,7.60
2023-03-20T07:14:31.204Z,7.50
2023-03-20T07:17:02.313Z,7.40
2023-03-20T07:19:29.119Z,7.40
2023-03-20T07:22:03.597Z,7.40
2023-03-20T07:24:36.088Z,7.30
2023-03-20T07:27:03.494Z,7.20
2023-03-20T07:29:31.706Z,7.10
2023-03-20T07:32:00.994Z,7.20
2023-03-20T07:34:32.576Z,7.10
2023-03-20T07:37:00.660Z,7.20
2023-03-20T07:39:28.291Z,7.20
2023-03-20T07:42:16.138Z,7.20
2023-03-20T07:44:52.984Z,7.30
2023-03-20T07:47:20.157Z,7.40
2023-03-20T07:49:46.824Z,7.60
2023-03-20T07:52:13.557Z,7.80
2023-03-20T07:54:40.491Z,7.80
2023-03-20T07:57:07.255Z,8.00
2023-03-20T07:59:33.957Z,8.20
2023-03-20T08:02:00.611Z,8.40
2023-03-20T08:04:27.335Z,8.30
2023-03-20T08:06:54.175Z,8.10
2023-03-20T08:09:21.035Z,8.00
2023-03-20T08:11:47.750Z,8.00
2023-03-20T08:14:14.429Z,7.90
2023-03-20T08:16:41.384Z,8.00
2023-03-20T08:19:08.120Z,7.90
2023-03-20T08:21:34.808Z,7.80
2023-03-20T08:24:01.629Z,7.90
2023-03-20T08:26:28.368Z,7.90
2023-03-20T08:28:55.219Z,8.00
2023-03-20T08:31:22.016Z,8.20
2023-03-20T08:33:48.967Z,8.40
2023-03-20T08:36:17.096Z,8.50
2023-03-20T08:38:43.879Z,8.50
2023-03-20T08:41:10.746Z,8.40
2023-03-20T08:43:37.655Z,8.40
2023-03-20T08:46:05.415Z,8.50
2023-03-20T08:48:32.404Z,8.60
2023-03-20T08:50:59.123Z,8.70
2023-03-20T08:53:25.896Z,8.60
2023-03-20T08:55:53.582Z,8.70
2023-03-20T08:58:21.386Z,8.70
2023-03-20T09:00:48.613Z,8.80
2023-03-20T09:03:17.601Z,8.80
2023-03-20T09:05:46.030Z,8.60
2023-03-20T09:08:13.769Z,8.50
2023-03-20T09:10:40.755Z,8.40
2023-03-20T09:13:25.636Z,8.20
2023-03-20T09:15:53.197Z,8.00
2023-03-20T09:18:21.007Z,8.10
2023-03-20T09:20:48.574Z,8.20
2023-03-20T09:23:16.121Z,8.40
2023-03-20T09:25:43.166Z,8.50
2023-03-20T09:28:10.133Z,8.70
2023-03-20T09:30:37.190Z,8.70
2023-03-20T09:33:04.167Z,8.70
2023-03-20T09:35:31.298Z,8.80
2023-03-20T09:37:58.036Z,8.80
2023-03-20T09:40:30.670Z,8.70
2023-03-20T09:43:01.479Z,8.80
2023-03-20T09:46:01.177Z,8.90
2023-03-20T09:48:36.002Z,9.10
2023-03-20T09:51:31.830Z,9.30
2023-03-20T09:54:07.596Z,9.20
2023-03-20T09:56:34.367Z,9.30
2023-03-20T09:59:04.202Z,9.30
2023-03-20T10:01:39.938Z,9.20
2023-03-20T10:04:09.658Z,9.20
2023-03-20T10:06:36.759Z,9.10
2023-03-20T10:09:33.660Z,9.00
2023-03-20T10:12:25.733Z,9.20
2023-03-20T10:15:33.326Z,9.40
2023-03-20T10:18:13.983Z,9.30
2023-03-20T10:20:48.949Z,9.20
2023-03-20T10:23:41.246Z,9.30
2023-03-20T10:26:13.702Z,9.30
2023-03-20T10:28:53.972Z,9.20
2023-03-20T10:31:37.794Z,9.30
2023-03-20T10:34:20.800Z,9.40
2023-03-20T10:36:56.326Z,9.60
2023-03-20T10:39:41.966Z,9.90
2023-03-20T10:42:19.724Z,10.10
2023-03-20T10:44:53.795Z,10.10
2023-03-20T10:47:24.579Z,10.10
2023-03-20T10:50:03.011Z,10.00
2023-03-20T10:52:33.682Z,10.00
2023-03-20T10:55:05.490Z,9.80
2023-03-20T10:57:37.180Z,9.60
2023-03-20T11:00:05.251Z,9.50
2023-03-20T11:02:32.490Z,9.50
2023-03-20T11:05:01.783Z,9.40
2023-03-20T11:07:38.310Z,9.40
2023-03-20T11:10:04.931Z,9.40
2023-03-20T11:12:37.497Z,9.40
2023-03-20T11:15:14.092Z,9.30
2023-03-20T11:17:41.509Z,9.40
2023-03-20T11:20:10.950Z,9.40
2023-03-20T11:22:38.701Z,9.40
2023-03-20T11:25:05.652Z,9.50
2023-03-20T11:27:34.569Z,9.60
2023-03-20T11:30:05.651Z,9.50
2023-03-20T11:32:34.464Z,9.40
2023-03-20T11:35:31.485Z,9.30
2023-03-20T11:38:13.772Z,9.20
2023-03-20T11:40:40.599Z,9.30
2023-03-20T11:43:18.603Z,9.20
2023-03-20T11:45:49.065Z,9.20
2023-03-20T11:48:22.050Z,9.10
2023-03-20T11:51:11.062Z,9.20
2023-03-20T11:54:00.525Z,9.30
2023-03-20T11:56:29.518Z,9.40
2023-03-20T11:59:14.628Z,9.40
2023-03-20T12:01:46.978Z,9.60
2023-03-20T12:04:29.764Z,10.30
2023-03-20T12:07:13.135Z,10.70
2023-03-20T12:10:01.346Z,10.70
2023-03-20T12:13:11.025Z,10.60
2023-03-20T12:15:42.459Z,10.80
2023-03-20T12:18:35.757Z,10.90
2023-03-20T12:21:27.545Z,10.90
2023-03-20T12:24:09.734Z,10.90
2023-03-20T12:26:48.119Z,11.00
2023-03-20T12:29:27.561Z,11.00
2023-03-20T12:32:04.940Z,10.90
2023-03-20T12:34:56.833Z,10.90
2023-03-20T12:37:23.859Z,11.10
2023-03-20T12:39:59.872Z,11.20
2023-03-20T12:42:29.400Z,11.40
2023-03-20T12:45:05.958Z,11.20
2023-03-20T12:47:44.321Z,11.30
2023-03-20T12:50:18.308Z,11.60
2023-03-20T12:53:01.599Z,11.40
2023-03-20T12:55:42.992Z,11.50
2023-03-20T12:58:25.724Z,11.60
2023-03-20T13:00:52.591Z,11.70
2023-03-20T13:03:26.809Z,11.40
2023-03-20T13:06:15.812Z,11.40
2023-03-20T13:09:16.728Z,11.30
2023-03-20T13:12:01.406Z,11.10
2023-03-20T13:15:04.374Z,11.30
2023-03-20T13:18:09.130Z,11.60
2023-03-20T13:20:55.498Z,11.60
2023-03-20T13:24:00.315Z,11.60
2023-03-20T13:26:37.633Z,11.60
2023-03-20T13:29:27.555Z,12.00
2023-03-20T13:31:57.151Z,11.70
2023-03-20T13:35:01.678Z,11.10
2023-03-20T13:37:41.535Z,10.70
2023-03-20T13:40:14.179Z,10.80
2023-03-20T13:43:13.488Z,11.10
2023-03-20T13:45:42.179Z,10.90
2023-03-20T13:48:33.514Z,10.90
2023-03-20T13:51:34.335Z,10.90
2023-03-20T13:54:06.857Z,10.80
2023-03-20T13:56:48.903Z,10.80
2023-03-20T13:59:39.816Z,10.80
2023-03-20T14:02:24.921Z,10.60
2023-03-20T14:04:57.646Z,10.80
2023-03-20T14:07:34.006Z,10.90
2023-03-20T14:10:22.603Z,10.80
2023-03-20T14:13:14.395Z,10.70
2023-03-20T14:15:56.154Z,10.70
2023-03-20T14:18:25.199Z,11.10
2023-03-20T14:21:00.972Z,11.60
2023-03-20T14:23:38.235Z,11.80
2023-03-20T14:26:14.209Z,11.60
2023-03-20T14:29:09.803Z,11.70
2023-03-20T14:31:38.365Z,11.60
2023-03-20T14:34:13.524Z,12.10
2023-03-20T14:36:58.571Z,12.30
2023-03-20T14:39:47.125Z,12.10
2023-03-20T14:42:38.652Z,12.10
2023-03-20T14:45:16.558Z,12.50
2023-03-20T14:47:43.439Z,12.70
2023-03-20T14:50:28.136Z,13.10
2023-03-20T14:53:21.644Z,13.70
2023-03-20T14:55:57.649Z,13.00
2023-03-20T14:58:49.124Z,12.90
2023-03-20T15:01:27.752Z,13.20
2023-03-20T15:04:00.302Z,12.80
2023-03-20T15:06:27.957Z,12.30
2023-03-20T15:09:15.552Z,11.60
2023-03-20T15:11:43.584Z,11.40
2023-03-20T15:14:18.532Z,12.00
2023-03-20T15:16:45.409Z,14.10
2023-03-20T15:19:19.644Z,15.00
2023-03-20T15:21:49.195Z,14.40
2023-03-20T15:24:29.889Z,13.50
2023-03-20T15:27:00.482Z,14.70
2023-03-20T15:29:29.560Z,15.50
2023-03-20T15:32:14.123Z,16.00
2023-03-20T15:34:42.681Z,16.60
2023-03-20T15:37:15.044Z,17.10
2023-03-20T15:39:48.090Z,17.40
2023-03-20T15:42:18.274Z,18.00
2023-03-20T15:44:48.011Z,17.50
2023-03-20T15:47:23.142Z,16.00
2023-03-20T15:49:59.979Z,14.10
2023-03-20T15:52:32.063Z,12.90
2023-03-20T15:55:02.770Z,12.80
2023-03-20T15:57:41.442Z,13.50
2023-03-20T16:00:15.359Z,13.60
2023-03-20T16:02:43.991Z,14.20
2023-03-20T16:05:14.333Z,14.60
2023-03-20T16:07:41.833Z,14.90
2023-03-20T16:10:36.395Z,16.30
2023-03-20T16:13:06.504Z,16.40
2023-03-20T16:15:33.925Z,16.70
2023-03-20T16:18:06.553Z,16.80
2023-03-20T16:20:38.670Z,17.20
2023-03-20T16:23:08.321Z,16.50
2023-03-20T16:25:36.467Z,16.30
2023-03-20T16:28:07.067Z,16.60
2023-03-20T16:30:34.963Z,16.20
2023-03-20T16:33:15.718Z,15.10
2023-03-20T16:35:48.971Z,13.80
2023-03-20T16:38:28.064Z,12.90
2023-03-20T16:41:31.681Z,12.50
2023-03-20T16:43:58.497Z,12.40
2023-03-20T16:46:27.468Z,12.00
2023-03-20T16:49:02.176Z,11.50
2023-03-20T16:51:31.756Z,11.60
2023-03-20T16:54:03.581Z,11.70
2023-03-20T16:56:36.905Z,12.10
2023-03-20T16:59:11.364Z,12.70
2023-03-20T17:01:43.100Z,13.50
2023-03-20T17:04:27.734Z,14.20
2023-03-20T17:07:18.405Z,14.20
2023-03-20T17:10:17.166Z,14.00
2023-03-20T17:12:47.464Z,13.80
2023-03-20T17:15:16.545Z,13.30
2023-03-20T17:17:44.040Z,13.30
2023-03-20T17:20:24.263Z,13.20
2023-03-20T17:22:51.140Z,12.00
2023-03-20T17:25:18.025Z,11.40
2023-03-20T17:27:45.241Z,11.00
2023-03-20T17:30:17.530Z,10.70
2023-03-20T17:32:44.304Z,10.50
2023-03-20T17:35:11.424Z,10.30
2023-03-20T17:37:38.670Z,10.00
2023-03-20T17:40:06.097Z,9.70
2023-03-20T17:42:33.100Z,9.60
2023-03-20T17:45:03.317Z,9.40
2023-03-20T17:47:30.818Z,9.30
2023-03-20T17:49:58.028Z,9.30
2023-03-20T17:52:27.346Z,9.30
2023-03-20T17:54:54.915Z,9.20
2023-03-20T17:57:34.266Z,9.00
2023-03-20T18:00:01.830Z,9.00
2023-03-20T18:02:31.086Z,8.90
2023-03-20T18:04:57.762Z,8.80
2023-03-20T18:07:24.536Z,8.70
2023-03-20T18:09:51.511Z,8.60
2023-03-20T18:12:19.144Z,8.60
2023-03-20T18:14:46.530Z,8.50
2023-03-20T18:17:16.991Z,8.40
2023-03-20T18:19:44.663Z,8.20
2023-03-20T18:22:12.424Z,7.80
2023-03-20T18:24:45.323Z,7.80
2023-03-20T18:27:12.215Z,7.80
2023-03-20T18:29:39.005Z,8.00
2023-03-20T18:32:05.672Z,7.90
2023-03-20T18:34:33.167Z,7.80
2023-03-20T18:37:00.023Z,7.80
2023-03-20T18:39:27.228Z,7.80
2023-03-20T18:41:54.104Z,7.70
2023-03-20T18:44:20.921Z,7.60
2023-03-20T18:46:47.656Z,7.40
2023-03-20T18:49:18.009Z,7.30
2023-03-20T18:51:45.066Z,7.10
2023-03-20T18:54:11.791Z,7.00
2023-03-20T18:56:38.724Z,7.00
2023-03-20T18:59:08.046Z,6.90
2023-03-20T19:01:35.906Z,6.80
2023-03-20T19:04:03.195Z,6.80
2023-03-20T19:06:31.984Z,6.80
2023-03-20T19:08:58.786Z,6.80
2023-03-20T19:11:25.530Z,6.70
2023-03-20T19:13:53.798Z,6.80
2023-03-20T19:16:41.268Z,6.70
2023-03-20T19:19:10.680Z,6.70
2023-03-20T19:21:37.383Z,6.70
2023-03-20T19:24:05.980Z,6.50
2023-03-20T19:26:34.700Z,6.40
2023-03-20T19:29:08.319Z,6.30
2023-03-20T19:31:35.762Z,6.10
2023-03-20T19:34:03.109Z,5.80
2023-03-20T19:36:35.600Z,5.70
2023-03-20T19:39:04.620Z,5.80
2023-03-20T19:41:32.434Z,5.90
2023-03-20T19:43:59.675Z,6.10
2023-03-20T19:46:43.206Z,6.10
2023-03-20T19:49:20.269Z,6.00
2023-03-20T19:51:48.357Z,5.90
2023-03-20T19:54:15.568Z,6.00
2023-03-20T19:56:42.259Z,6.20
2023-03-20T19:59:08.949Z,6.10
2023-03-20T20:01:36.183Z,6.00
2023-03-20T20:04:03.963Z,5.90
2023-03-20T20:06:32.790Z,6.00
2023-03-20T20:09:00.950Z,5.90
2023-03-20T20:11:28.215Z,5.90
2023-03-20T20:14:06.275Z,5.90
2023-03-20T20:16:39.353Z,5.90
2023-03-20T20:19:06.325Z,5.90
2023-03-20T20:24:20.215Z,5.90
2023-03-20T20:27:11.686Z,6.00
2023-03-20T20:29:38.657Z,5.90
2023-03-20T20:32:05.547Z,6.10
2023-03-20T20:40:06.461Z,6.20
2023-03-20T20:42:33.110Z,6.20
2023-03-20T20:44:59.774Z,6.00
2023-03-20T20:47:26.505Z,5.70
2023-03-20T20:49:53.872Z,5.70
2023-03-20T20:52:20.686Z,5.70
2023-03-20T20:54:48.159Z,5.80
2023-03-20T20:57:15.476Z,5.80
2023-03-20T20:59:42.199Z,5.60
2023-03-20T21:02:12.890Z,5.40
2023-03-20T21:04:41.126Z,5.60
2023-03-20T21:07:11.942Z,5.60
2023-03-20T21:09:39.960Z,5.70
2023-03-20T21:12:08.444Z,5.80
2023-03-20T21:14:35.386Z,5.80
2023-03-20T21:17:02.557Z,5.80
2023-03-20T21:19:33.011Z,5.80
2023-03-20T21:21:59.668Z,5.70
2023-03-20T21:24:33.077Z,5.80
2023-03-20T21:27:10.869Z,5.80
2023-03-20T21:29:39.036Z,5.70
2023-03-20T21:32:06.294Z,5.60
2023-03-20T21:34:32.994Z,5.50
2023-03-20T21:37:02.924Z,5.60
2023-03-20T21:39:51.022Z,5.70
2023-03-20T21:42:18.831Z,5.90
2023-03-20T21:45:34.565Z,6.00
2023-03-20T21:48:18.921Z,6.00
2023-03-20T21:56:41.891Z,5.90
2023-03-20T21:59:26.935Z,5.90
2023-03-20T22:01:58.747Z,5.70
2023-03-20T22:13:23.203Z,6.00
2023-03-20T22:16:03.468Z,6.00
2023-03-20T22:19:18.042Z,5.90
2023-03-20T22:21:37.081Z,5.90
2023-03-20T22:24:31.286Z,5.90
2023-03-20T22:27:31.981Z,6.00
2023-03-20T22:38:29.344Z,6.10
2023-03-20T22:44:30.526Z,6.20
2023-03-20T22:46:16.709Z,6.10
2023-03-20T22:48:44.228Z,6.00
2023-03-20T22:51:11.038Z,6.00
2023-03-20T22:53:37.773Z,6.00
2023-03-20T22:56:04.956Z,6.00
2023-03-20T22:58:31.605Z,6.00
2023-03-20T23:00:58.392Z,6.00
2023-03-20T23:03:40.285Z,6.00
2023-03-20T23:06:19.460Z,6.00
2023-03-20T23:08:53.851Z,6.00
2023-03-20T23:11:26.747Z,6.00
2023-03-20T23:13:53.405Z,6.00
2023-03-20T23:16:20.565Z,5.90
2023-03-20T23:18:47.318Z,5.80
2023-03-20T23:21:14.041Z,5.80
2023-03-20T23:23:40.700Z,5.70
2023-03-20T23:26:15.773Z,5.60
2023-03-20T23:28:44.440Z,5.60
2023-03-20T23:31:23.411Z,5.70
2023-03-20T23:33:53.516Z,5.60
2023-03-20T23:36:34.910Z,5.50
2023-03-20T23:39:02.882Z,5.50
2023-03-20T23:41:57.342Z,5.30
2023-03-20T23:44:16.234Z,5.20
2023-03-20T23:46:42.896Z,5.20
2023-03-20T23:49:09.595Z,5.10
2023-03-20T23:51:36.315Z,5.10
2023-03-20T23:54:03.048Z,5.10
2023-03-20T23:56:29.725Z,5.10
2023-03-20T23:59:03.173Z,5.10
